Time;durP1;ratioP1;P1;durP2;ratioP2;P2;SDS_P1;SDS_P2;PMS_P1;PMS_P2;Temp;Humidity;BMP_temperature;BMP_pressure;BME280_temperature;BME280_humidity;BME280_pressure;Samples;Min_cycle;Max_cycle;Signal;HPM_P1;HPM_P2
2023/01/21 00:01:48;;;;;;;31.30;17.97;;;2.20;99.90;;;;;;6073745;23;20229;-78
2023/01/21 00:04:13;;;;;;;30.07;18.33;;;2.20;99.90;;;;;;6099312;23;20169;-78
2023/01/21 00:06:39;;;;;;;32.80;19.37;;;2.10;99.90;;;;;;6073961;23;20143;-78
2023/01/21 00:09:05;;;;;;;36.17;19.90;;;2.10;99.90;;;;;;6098643;23;20178;-78
2023/01/21 00:11:31;;;;;;;30.37;18.73;;;2.00;99.90;;;;;;6099306;23;20131;-78
2023/01/21 00:13:57;;;;;;;36.47;19.40;;;2.00;99.90;;;;;;6099265;23;20599;-78
2023/01/21 00:16:23;;;;;;;31.83;19.10;;;2.00;99.90;;;;;;6098845;23;20210;-78
2023/01/21 00:18:48;;;;;;;28.87;18.50;;;2.00;99.90;;;;;;6098706;23;20162;-77
2023/01/21 00:21:14;;;;;;;32.40;19.27;;;2.00;99.90;;;;;;6098976;23;20143;-77
2023/01/21 00:23:41;;;;;;;33.33;19.37;;;1.90;99.90;;;;;;6099326;23;20209;-77
2023/01/21 00:26:10;;;;;;;31.27;19.43;;;1.80;99.90;;;;;;6099270;23;20691;-78
2023/01/21 00:28:37;;;;;;;34.27;19.83;;;1.80;99.90;;;;;;6099220;23;20167;-77
2023/01/21 00:31:05;;;;;;;35.00;20.03;;;1.90;99.90;;;;;;6099182;23;20197;-79
2023/01/21 00:33:31;;;;;;;36.03;19.43;;;1.80;99.90;;;;;;6099913;23;20213;-79
2023/01/21 00:36:01;;;;;;;37.37;21.43;;;1.70;99.90;;;;;;6099297;23;20130;-79
2023/01/21 00:38:28;;;;;;;33.20;19.30;;;1.70;99.90;;;;;;6099628;23;20155;-77
2023/01/21 00:41:10;;;;;;;34.63;19.77;;;1.60;99.90;;;;;;6099687;23;20166;-78
2023/01/21 00:43:36;;;;;;;34.63;19.37;;;1.70;99.90;;;;;;6098025;23;20160;-78
2023/01/21 00:46:04;;;;;;;37.93;20.33;;;1.50;99.90;;;;;;6097686;23;20138;-77
2023/01/21 00:48:30;;;;;;;34.67;20.23;;;1.60;99.90;;;;;;6097732;23;20139;-79
2023/01/21 00:50:59;;;;;;;35.93;20.83;;;1.60;99.90;;;;;;6097766;23;20172;-79
2023/01/21 00:53:25;;;;;;;37.13;20.13;;;1.60;99.90;;;;;;6098172;23;20470;-78
2023/01/21 00:55:51;;;;;;;36.93;20.60;;;1.40;99.90;;;;;;6097664;23;20159;-79
2023/01/21 00:58:16;;;;;;;36.83;18.97;;;1.50;99.90;;;;;;6072130;23;20202;-77
2023/01/21 01:00:42;;;;;;;33.40;20.00;;;1.50;99.90;;;;;;6097625;23;20182;-78
2023/01/21 01:03:07;;;;;;;35.40;20.40;;;1.40;99.90;;;;;;6097496;23;20131;-78
2023/01/21 01:05:35;;;;;;;37.40;21.43;;;1.50;99.90;;;;;;6097511;23;20592;-78
2023/01/21 01:08:01;;;;;;;36.77;20.70;;;1.40;99.90;;;;;;6097864;23;20174;-78
2023/01/21 01:10:28;;;;;;;39.10;22.00;;;1.50;99.90;;;;;;6097181;23;20166;-77
2023/01/21 01:12:53;;;;;;;39.83;22.10;;;1.50;99.90;;;;;;6097242;23;20131;-78
2023/01/21 01:15:19;;;;;;;45.20;21.30;;;1.50;99.90;;;;;;6071715;23;20161;-78
2023/01/21 01:17:45;;;;;;;38.80;21.87;;;1.40;99.90;;;;;;6097330;23;20191;-77
2023/01/21 01:20:11;;;;;;;40.67;21.37;;;1.40;99.90;;;;;;6097115;23;20143;-78
2023/01/21 01:22:36;;;;;;;41.73;22.03;;;1.30;99.90;;;;;;6097208;23;20142;-78
2023/01/21 01:25:02;;;;;;;38.97;20.90;;;1.30;99.90;;;;;;6071561;23;20151;-78
2023/01/21 01:27:29;;;;;;;41.20;20.97;;;1.20;99.90;;;;;;6071229;23;20233;-78
2023/01/21 01:29:54;;;;;;;42.23;22.27;;;1.20;99.90;;;;;;6097014;23;20162;-78
2023/01/21 01:32:20;;;;;;;45.07;23.43;;;1.20;99.90;;;;;;6097058;23;20142;-78
2023/01/21 01:34:45;;;;;;;38.47;21.40;;;1.30;99.90;;;;;;6096921;23;20127;-78
2023/01/21 01:37:11;;;;;;;43.43;22.10;;;1.30;99.90;;;;;;6096894;23;20154;-78
2023/01/21 01:39:36;;;;;;;45.33;22.47;;;1.30;99.90;;;;;;6071490;23;20230;-78
2023/01/21 01:42:02;;;;;;;43.37;23.00;;;1.30;99.90;;;;;;6096921;23;20570;-78
2023/01/21 01:44:52;;;;;;;47.17;22.23;;;1.30;99.90;;;;;;6071364;23;20524;-78
2023/01/21 01:47:19;;;;;;;47.80;24.20;;;1.10;99.90;;;;;;6071486;23;20210;-77
2023/01/21 01:49:46;;;;;;;47.00;22.77;;;1.10;99.90;;;;;;6096618;23;20628;-78
2023/01/21 01:52:14;;;;;;;47.20;22.70;;;1.10;99.90;;;;;;6071298;23;20142;-78
2023/01/21 01:54:48;;;;;;;47.23;22.80;;;1.10;99.90;;;;;;6096265;23;20569;-78
2023/01/21 01:57:17;;;;;;;45.13;22.57;;;1.00;99.90;;;;;;6096625;23;20185;-75
2023/01/21 01:59:43;;;;;;;43.10;21.93;;;1.10;99.90;;;;;;6096868;23;20142;-75
2023/01/21 02:02:14;;;;;;;46.90;23.90;;;1.00;99.90;;;;;;6096760;23;20227;-75
2023/01/21 02:04:52;;;;;;;48.60;23.37;;;1.00;99.90;;;;;;6096508;23;20186;-75
2023/01/21 02:07:21;;;;;;;46.83;23.10;;;1.00;99.90;;;;;;6096596;23;20161;-75
2023/01/21 02:09:47;;;;;;;46.27;24.13;;;1.00;99.90;;;;;;6096944;23;20269;-76
2023/01/21 02:12:14;;;;;;;47.57;24.83;;;0.90;99.90;;;;;;6097016;23;20233;-76
2023/01/21 02:14:42;;;;;;;50.33;24.47;;;0.90;99.90;;;;;;6096644;23;20130;-75
2023/01/21 02:17:32;;;;;;;50.90;23.70;;;0.90;99.90;;;;;;6096828;23;20154;-76
2023/01/21 02:20:08;;;;;;;50.47;24.43;;;1.10;99.90;;;;;;6096465;23;20143;-75
2023/01/21 02:22:39;;;;;;;54.47;24.97;;;1.20;99.90;;;;;;6070997;23;20181;-76
2023/01/21 02:25:32;;;;;;;51.03;23.53;;;1.10;99.90;;;;;;6096589;23;20469;-75
2023/01/21 02:28:19;;;;;;;51.03;24.23;;;1.00;99.90;;;;;;6071316;23;20584;-75
2023/01/21 02:31:09;;;;;;;51.47;24.27;;;1.10;99.90;;;;;;6071264;23;20157;-76
2023/01/21 02:33:57;;;;;;;50.47;24.17;;;1.10;99.90;;;;;;6096447;23;20209;-75
2023/01/21 02:37:00;;;;;;;52.07;27.20;;;0.90;99.90;;;;;;6096744;23;20213;-76
2023/01/21 02:39:29;;;;;;;47.90;24.00;;;0.90;99.90;;;;;;6053787;23;20233;-76
2023/01/21 02:42:04;;;;;;;56.23;26.67;;;1.00;99.90;;;;;;6071069;23;20152;-76
2023/01/21 02:44:38;;;;;;;48.30;24.50;;;0.90;99.90;;;;;;6095123;23;20534;-76
2023/01/21 02:47:38;;;;;;;49.80;24.87;;;0.80;99.90;;;;;;6096333;23;20146;-76
2023/01/21 02:50:25;;;;;;;55.80;24.73;;;0.90;99.90;;;;;;5998166;23;20197;-76
2023/01/21 02:52:58;;;;;;;52.23;24.47;;;1.00;99.90;;;;;;6070906;23;20176;-75
2023/01/21 02:55:28;;;;;;;60.00;26.47;;;0.80;99.90;;;;;;6096109;23;20594;-76
2023/01/21 02:57:59;;;;;;;50.03;24.87;;;0.70;99.90;;;;;;6070507;23;20182;-75
2023/01/21 03:00:38;;;;;;;54.13;26.63;;;0.70;99.90;;;;;;6096128;23;20308;-75
2023/01/21 03:03:11;;;;;;;60.50;26.50;;;0.80;99.90;;;;;;6096099;23;20134;-75
2023/01/21 03:05:53;;;;;;;62.40;26.97;;;0.90;99.90;;;;;;6096245;23;20138;-76
2023/01/21 03:08:21;;;;;;;53.77;25.37;;;0.80;99.90;;;;;;6096352;23;20455;-75
2023/01/21 03:10:55;;;;;;;56.27;25.53;;;0.80;99.90;;;;;;6095699;23;20134;-75
2023/01/21 03:19:16;;;;;;;60.10;26.70;;;0.60;99.90;;;;;;6096344;23;20158;-75
2023/01/21 03:21:42;;;;;;;58.67;26.80;;;0.70;99.90;;;;;;6095960;23;20138;-76
2023/01/21 03:24:11;;;;;;;56.07;26.83;;;0.70;99.90;;;;;;6096219;23;20135;-76
2023/01/21 03:26:41;;;;;;;55.13;28.23;;;0.60;99.90;;;;;;6096135;23;20229;-76
2023/01/21 03:29:13;;;;;;;55.47;26.43;;;0.60;99.90;;;;;;6096244;23;20673;-76
2023/01/21 03:31:43;;;;;;;58.70;26.33;;;0.70;99.90;;;;;;6095848;23;20127;-75
2023/01/21 03:34:13;;;;;;;61.73;27.43;;;0.70;99.90;;;;;;6096050;23;20135;-75
2023/01/21 03:36:52;;;;;;;59.27;26.80;;;0.60;99.90;;;;;;6070474;23;20147;-76
2023/01/21 03:39:32;;;;;;;56.67;27.73;;;0.60;99.90;;;;;;6096457;23;20135;-77
2023/01/21 03:41:59;;;;;;;60.93;26.77;;;0.60;99.90;;;;;;6096132;23;20145;-78
2023/01/21 03:44:25;;;;;;;59.30;28.43;;;0.60;99.90;;;;;;6095968;23;20157;-78
2023/01/21 03:47:09;;;;;;;68.70;29.53;;;0.60;99.90;;;;;;6095976;23;20158;-77
2023/01/21 03:49:44;;;;;;;66.83;27.70;;;0.60;99.90;;;;;;6096203;23;20504;-79
2023/01/21 03:52:12;;;;;;;65.63;28.40;;;0.80;99.90;;;;;;6096435;23;20204;-77
2023/01/21 03:54:38;;;;;;;63.73;27.80;;;0.70;99.90;;;;;;6096381;23;20143;-78
2023/01/21 03:57:05;;;;;;;60.57;26.80;;;0.60;99.90;;;;;;6096222;23;20198;-79
2023/01/21 03:59:31;;;;;;;59.20;26.97;;;0.60;99.90;;;;;;6070301;23;20155;-78
2023/01/21 04:01:56;;;;;;;61.70;27.33;;;0.60;99.90;;;;;;6096346;23;20211;-79
2023/01/21 04:04:22;;;;;;;57.30;26.73;;;0.60;99.90;;;;;;6096390;23;20139;-78
2023/01/21 04:06:47;;;;;;;58.00;25.40;;;0.60;99.90;;;;;;6096562;23;20501;-78
2023/01/21 04:09:13;;;;;;;65.90;27.90;;;0.70;99.90;;;;;;6096697;23;20247;-78
2023/01/21 04:11:39;;;;;;;58.43;27.40;;;0.60;99.90;;;;;;6071076;23;20154;-78
2023/01/21 04:14:04;;;;;;;62.50;26.83;;;0.60;99.90;;;;;;6096573;23;20468;-78
2023/01/21 04:16:30;;;;;;;60.90;28.40;;;0.50;99.90;;;;;;6070885;23;20564;-78
2023/01/21 04:18:57;;;;;;;68.17;29.27;;;0.40;99.90;;;;;;6071805;23;20158;-77
2023/01/21 04:21:22;;;;;;;59.00;27.20;;;0.30;99.90;;;;;;6098223;23;20529;-78
2023/01/21 04:23:48;;;;;;;59.93;27.13;;;0.40;99.90;;;;;;6072767;23;20149;-78
2023/01/21 04:26:15;;;;;;;60.03;26.80;;;0.30;99.90;;;;;;6098053;23;20198;-79
2023/01/21 04:28:41;;;;;;;63.63;29.00;;;0.30;99.90;;;;;;6097979;23;20169;-77
2023/01/21 04:31:07;;;;;;;63.83;28.77;;;0.40;99.90;;;;;;6072593;23;20156;-78
2023/01/21 04:33:32;;;;;;;55.73;27.50;;;0.40;99.90;;;;;;6098369;23;20300;-77
2023/01/21 04:35:59;;;;;;;59.50;27.83;;;0.40;99.90;;;;;;6098260;23;20230;-78
2023/01/21 04:38:25;;;;;;;63.37;27.83;;;0.40;99.90;;;;;;6098088;23;20135;-78
2023/01/21 04:40:51;;;;;;;61.50;27.63;;;0.50;99.90;;;;;;6098088;23;20135;-78
2023/01/21 04:43:17;;;;;;;58.13;27.23;;;0.50;99.90;;;;;;6072196;23;20150;-78
2023/01/21 04:45:43;;;;;;;61.17;26.93;;;0.50;99.90;;;;;;6097983;23;20135;-78
2023/01/21 04:48:11;;;;;;;60.00;27.37;;;0.50;99.90;;;;;;6098180;23;20155;-77
2023/01/21 04:50:37;;;;;;;60.60;28.80;;;0.40;99.90;;;;;;6097917;23;20245;-78
2023/01/21 04:53:03;;;;;;;61.67;26.43;;;0.40;99.90;;;;;;6098233;23;20589;-77
2023/01/21 04:55:29;;;;;;;61.47;27.33;;;0.40;99.90;;;;;;6097991;23;20162;-79
2023/01/21 04:57:54;;;;;;;59.00;27.13;;;0.50;99.90;;;;;;6071688;23;20479;-79
2023/01/21 05:00:20;;;;;;;61.83;27.70;;;0.40;99.90;;;;;;6097401;23;20632;-79
2023/01/21 05:02:46;;;;;;;61.10;27.40;;;0.30;99.90;;;;;;6097665;23;20442;-79
2023/01/21 05:05:11;;;;;;;64.43;27.47;;;0.40;99.90;;;;;;6097867;23;20565;-77
2023/01/21 05:07:37;;;;;;;66.90;27.83;;;0.30;99.90;;;;;;6071632;23;20198;-79
2023/01/21 05:10:04;;;;;;;61.47;28.93;;;0.40;99.90;;;;;;6072141;23;20266;-79
2023/01/21 05:12:29;;;;;;;62.73;27.60;;;0.50;99.90;;;;;;6097231;23;20158;-79
2023/01/21 05:14:58;;;;;;;67.03;29.07;;;0.40;99.90;;;;;;6072033;23;20477;-78
2023/01/21 05:17:24;;;;;;;63.73;27.07;;;0.40;99.90;;;;;;6097452;23;20209;-79
2023/01/21 05:19:50;;;;;;;65.17;28.47;;;0.40;99.90;;;;;;6097742;23;20222;-78
2023/01/21 05:22:16;;;;;;;67.70;28.63;;;0.30;99.90;;;;;;6071950;23;20142;-79
2023/01/21 05:24:43;;;;;;;68.07;29.63;;;0.30;99.90;;;;;;6072197;23;20548;-78
2023/01/21 05:27:08;;;;;;;57.57;27.37;;;0.30;99.90;;;;;;6097583;23;20458;-79
2023/01/21 05:29:34;;;;;;;61.60;28.33;;;0.40;99.90;;;;;;6097446;23;20241;-79
2023/01/21 05:32:01;;;;;;;67.07;29.30;;;0.30;99.90;;;;;;6098023;23;20186;-79
2023/01/21 05:34:26;;;;;;;64.50;27.33;;;0.40;99.90;;;;;;6098147;23;20134;-78
2023/01/21 05:36:52;;;;;;;67.03;28.70;;;0.20;99.90;;;;;;6098249;23;20135;-79
2023/01/21 05:39:18;;;;;;;65.93;28.67;;;0.20;99.90;;;;;;6072465;23;20145;-78
2023/01/21 05:41:44;;;;;;;62.33;28.17;;;0.20;99.90;;;;;;6098177;23;20170;-79
2023/01/21 05:44:09;;;;;;;65.27;30.00;;;0.20;99.90;;;;;;6097623;23;20142;-77
2023/01/21 05:46:35;;;;;;;73.83;31.50;;;0.10;99.90;;;;;;6072098;23;20146;-77
2023/01/21 05:49:02;;;;;;;66.53;28.27;;;0.20;99.90;;;;;;6097396;23;20236;-79
2023/01/21 05:51:27;;;;;;;70.27;30.33;;;0.20;99.90;;;;;;6097496;23;20131;-77
2023/01/21 05:53:53;;;;;;;67.03;29.20;;;0.10;99.90;;;;;;6096810;23;20191;-79
2023/01/21 05:56:18;;;;;;;64.20;28.67;;;0.10;99.90;;;;;;6071508;23;20172;-78
2023/01/21 05:58:44;;;;;;;65.87;30.03;;;0.10;99.90;;;;;;6097448;23;20231;-79
2023/01/21 06:01:11;;;;;;;69.77;30.33;;;0.00;99.90;;;;;;6097302;23;20200;-79
2023/01/21 06:03:37;;;;;;;72.13;29.80;;;0.00;99.90;;;;;;6097345;23;20140;-79
2023/01/21 06:06:03;;;;;;;63.83;28.83;;;0.20;99.90;;;;;;6097060;23;20619;-78
2023/01/21 06:08:28;;;;;;;69.33;30.63;;;0.10;99.90;;;;;;6096929;23;20261;-79
2023/01/21 06:10:55;;;;;;;64.53;28.00;;;0.00;99.90;;;;;;6096282;23;20562;-78
2023/01/21 06:13:21;;;;;;;63.90;30.40;;;-0.10;99.90;;;;;;6071495;23;20170;-77
2023/01/21 06:15:47;;;;;;;76.57;31.87;;;0.10;99.90;;;;;;6097107;23;20178;-77
2023/01/21 06:18:12;;;;;;;67.50;28.90;;;0.30;99.90;;;;;;6097544;23;20465;-78
2023/01/21 06:20:39;;;;;;;67.07;30.43;;;0.20;99.90;;;;;;6096813;23;20145;-78
2023/01/21 06:23:05;;;;;;;64.77;30.33;;;0.10;99.90;;;;;;6096822;23;20145;-78
2023/01/21 06:25:31;;;;;;;69.17;30.33;;;0.00;99.90;;;;;;6096591;23;20166;-78
2023/01/21 06:27:57;;;;;;;68.47;30.17;;;0.00;99.90;;;;;;6096872;23;20154;-78
2023/01/21 06:30:24;;;;;;;61.47;28.83;;;0.00;99.90;;;;;;6071328;23;20636;-78
2023/01/21 06:32:50;;;;;;;73.00;29.53;;;0.00;99.90;;;;;;6097049;23;20174;-77
2023/01/21 06:35:16;;;;;;;76.63;31.97;;;0.00;99.90;;;;;;6096974;23;20468;-77
2023/01/21 06:37:44;;;;;;;71.53;30.83;;;0.10;99.90;;;;;;6097044;23;20138;-78
2023/01/21 06:40:11;;;;;;;72.73;30.90;;;0.00;99.90;;;;;;6096560;23;20216;-78
2023/01/21 06:42:36;;;;;;;74.83;29.87;;;0.00;99.90;;;;;;6096584;23;20151;-78
2023/01/21 06:45:02;;;;;;;68.43;28.87;;;0.00;99.90;;;;;;6071376;23;20165;-78
2023/01/21 06:47:28;;;;;;;73.73;32.17;;;0.00;99.90;;;;;;6096928;23;20221;-78
2023/01/21 06:49:53;;;;;;;71.57;30.20;;;0.00;99.90;;;;;;6096554;23;20196;-78
2023/01/21 06:52:19;;;;;;;67.03;30.73;;;-0.10;99.90;;;;;;6097027;23;20193;-77
2023/01/21 06:54:44;;;;;;;79.37;31.03;;;0.00;99.90;;;;;;6096723;23;20131;-78
2023/01/21 06:57:11;;;;;;;70.07;30.33;;;0.10;99.90;;;;;;6071434;23;20170;-78
2023/01/21 06:59:37;;;;;;;64.73;28.87;;;0.10;99.90;;;;;;6097312;23;20158;-78
2023/01/21 07:02:02;;;;;;;74.30;29.30;;;0.10;99.90;;;;;;6096892;23;20142;-78
2023/01/21 07:04:28;;;;;;;67.57;29.60;;;0.10;99.90;;;;;;6096810;23;20165;-78
2023/01/21 07:06:54;;;;;;;76.87;32.07;;;0.00;99.90;;;;;;6096658;23;20142;-78
2023/01/21 07:09:19;;;;;;;71.63;31.90;;;0.10;99.90;;;;;;6071108;23;20550;-78
2023/01/21 07:11:46;;;;;;;74.27;30.83;;;0.00;99.90;;;;;;6070802;23;20233;-78
2023/01/21 07:14:11;;;;;;;73.00;31.70;;;-0.10;99.90;;;;;;6096582;23;20138;-78
2023/01/21 07:16:37;;;;;;;104.03;35.80;;;-0.10;99.90;;;;;;6096713;23;20135;-78
2023/01/21 07:19:03;;;;;;;75.07;32.57;;;-0.10;99.90;;;;;;6071075;23;20158;-78
2023/01/21 07:21:29;;;;;;;80.53;32.80;;;-0.10;99.90;;;;;;6070935;23;20207;-77
2023/01/21 07:23:55;;;;;;;70.97;31.83;;;-0.20;99.90;;;;;;6095884;23;20162;-77
2023/01/21 07:26:21;;;;;;;73.70;30.60;;;-0.20;99.90;;;;;;6070973;23;20156;-78
2023/01/21 07:28:47;;;;;;;77.17;31.47;;;-0.20;99.90;;;;;;6070723;23;20214;-78
2023/01/21 07:31:13;;;;;;;76.83;30.50;;;-0.10;99.90;;;;;;6096359;23;20150;-78
2023/01/21 07:33:39;;;;;;;72.63;31.87;;;0.00;99.90;;;;;;6095923;23;20553;-80
2023/01/21 07:36:06;;;;;;;70.03;31.37;;;0.00;99.90;;;;;;6070778;23;20228;-80
2023/01/21 07:38:32;;;;;;;68.67;29.03;;;-0.10;99.90;;;;;;6096289;23;20529;-81
2023/01/21 07:40:57;;;;;;;70.43;29.60;;;0.00;99.90;;;;;;6070482;23;20134;-81
2023/01/21 07:43:23;;;;;;;78.80;30.90;;;-0.10;99.90;;;;;;6070394;23;20147;-81
2023/01/21 07:45:52;;;;;;;78.10;33.50;;;-0.20;99.90;;;;;;6070827;23;20488;-81
2023/01/21 07:48:17;;;;;;;77.53;31.00;;;-0.20;99.90;;;;;;6070922;23;20151;-81
2023/01/21 07:50:43;;;;;;;70.93;30.90;;;-0.20;99.90;;;;;;6095692;23;20170;-77
2023/01/21 07:53:11;;;;;;;77.63;31.83;;;-0.20;99.90;;;;;;6097330;23;20135;-77
2023/01/21 07:55:37;;;;;;;80.17;30.80;;;0.00;99.90;;;;;;6098332;23;20163;-76
2023/01/21 07:58:09;;;;;;;75.00;31.83;;;0.10;99.90;;;;;;6099007;23;20181;-77
2023/01/21 08:00:39;;;;;;;73.63;31.10;;;0.10;99.90;;;;;;6072989;23;20193;-77
2023/01/21 08:03:04;;;;;;;77.23;31.47;;;0.00;99.90;;;;;;6098658;23;20190;-77
2023/01/21 08:05:31;;;;;;;75.03;31.87;;;0.00;99.90;;;;;;6098230;23;20143;-77
2023/01/21 08:07:57;;;;;;;70.73;30.57;;;-0.10;99.90;;;;;;6073288;23;20146;-78
2023/01/21 08:10:42;;;;;;;75.20;30.03;;;-0.20;99.90;;;;;;6098605;23;20211;-77
2023/01/21 08:13:07;;;;;;;78.93;30.97;;;-0.20;99.90;;;;;;6072955;23;20182;-77
2023/01/21 08:15:36;;;;;;;76.53;32.17;;;-0.20;99.90;;;;;;6072768;23;20150;-77
2023/01/21 08:18:03;;;;;;;80.50;31.33;;;-0.20;99.90;;;;;;6072999;23;20142;-76
2023/01/21 08:20:28;;;;;;;73.87;30.03;;;-0.20;99.90;;;;;;6098462;23;20139;-75
2023/01/21 08:23:00;;;;;;;70.90;31.43;;;-0.10;99.90;;;;;;6073107;23;20632;-76
2023/01/21 08:25:30;;;;;;;74.47;32.20;;;-0.10;99.90;;;;;;6072936;23;20150;-78
2023/01/21 08:27:59;;;;;;;76.80;32.93;;;0.00;99.90;;;;;;6098096;23;20237;-78
2023/01/21 08:30:25;;;;;;;72.77;32.00;;;0.00;99.90;;;;;;6098212;23;20162;-78
2023/01/21 08:32:53;;;;;;;68.83;31.37;;;-0.10;99.90;;;;;;6072545;23;20206;-78
2023/01/21 08:35:19;;;;;;;70.20;31.93;;;0.00;99.90;;;;;;6094495;23;20477;-77
2023/01/21 08:37:46;;;;;;;69.73;31.50;;;-0.10;99.90;;;;;;6068000;23;20142;-77
2023/01/21 08:40:13;;;;;;;73.03;31.73;;;0.10;99.90;;;;;;6070272;23;20172;-77
2023/01/21 08:42:40;;;;;;;68.77;30.80;;;0.00;99.90;;;;;;6072235;23;20241;-77
2023/01/21 08:45:07;;;;;;;68.50;30.60;;;0.10;99.90;;;;;;6097474;23;20139;-77
2023/01/21 08:47:33;;;;;;;77.93;31.33;;;0.20;99.90;;;;;;6097505;23;20245;-78
2023/01/21 08:50:02;;;;;;;76.30;31.37;;;0.10;99.90;;;;;;6071565;23;20565;-77
2023/01/21 08:52:27;;;;;;;71.07;29.40;;;0.10;99.90;;;;;;6070909;23;20530;-78
2023/01/21 08:55:02;;;;;;;70.17;29.77;;;0.20;99.90;;;;;;6097528;23;20137;-77
2023/01/21 08:57:28;;;;;;;66.30;31.63;;;0.10;99.90;;;;;;6098925;23;20165;-78
2023/01/21 09:00:02;;;;;;;71.30;30.03;;;0.00;99.90;;;;;;6072603;23;20206;-77
2023/01/21 09:02:34;;;;;;;75.53;30.83;;;0.10;99.90;;;;;;6098810;23;20436;-77
2023/01/21 09:05:37;;;;;;;64.50;29.57;;;0.20;99.90;;;;;;6098743;23;20249;-76
2023/01/21 09:08:03;;;;;;;65.23;30.27;;;0.20;99.90;;;;;;6072468;23;20136;-75
2023/01/21 09:11:03;;;;;;;65.70;29.43;;;0.30;99.90;;;;;;6097957;23;20250;-78
2023/01/21 09:13:34;;;;;;;70.30;30.70;;;0.30;99.90;;;;;;6072833;23;20560;-76
2023/01/21 09:16:01;;;;;;;58.33;28.93;;;0.40;99.90;;;;;;6097902;23;20464;-76
2023/01/21 09:18:30;;;;;;;60.97;27.03;;;0.50;99.90;;;;;;6070024;23;20151;-76
2023/01/21 09:21:03;;;;;;;61.47;28.10;;;0.50;99.90;;;;;;6096686;23;20622;-76
2023/01/21 09:23:52;;;;;;;67.03;29.37;;;0.60;99.90;;;;;;6098326;23;20147;-76
2023/01/21 09:27:07;;;;;;;63.87;29.00;;;0.70;99.90;;;;;;6097960;23;20471;-77
2023/01/21 09:29:52;;;;;;;58.70;26.27;;;0.70;99.90;;;;;;6070434;23;20663;-77
2023/01/21 09:32:39;;;;;;;54.53;26.63;;;0.50;99.90;;;;;;6069813;23;20166;-77
2023/01/21 09:35:07;;;;;;;56.17;26.03;;;0.50;99.90;;;;;;6098169;23;20507;-76
2023/01/21 09:37:33;;;;;;;60.37;27.80;;;0.60;99.90;;;;;;6097491;23;20131;-76
2023/01/21 09:40:00;;;;;;;55.43;26.83;;;0.80;99.90;;;;;;6096568;23;20154;-76
2023/01/21 09:42:30;;;;;;;52.47;27.40;;;0.80;99.90;;;;;;6071558;23;20143;-77
2023/01/21 09:45:00;;;;;;;56.90;26.93;;;1.00;99.90;;;;;;6070857;23;20592;-76
2023/01/21 09:47:34;;;;;;;59.53;27.73;;;1.00;99.90;;;;;;6071877;23;20242;-77
2023/01/21 09:50:12;;;;;;;59.97;27.60;;;0.90;99.90;;;;;;6096563;23;20162;-76
2023/01/21 09:52:40;;;;;;;57.20;27.23;;;1.00;99.90;;;;;;6095681;23;20407;-76
2023/01/21 09:55:17;;;;;;;51.20;24.20;;;1.00;99.90;;;;;;6096774;23;20520;-76
2023/01/21 09:58:05;;;;;;;52.33;26.13;;;1.20;99.90;;;;;;6071361;23;20170;-76
2023/01/21 10:00:34;;;;;;;54.43;25.27;;;1.20;99.90;;;;;;6071594;23;20519;-78
2023/01/21 10:03:34;;;;;;;52.77;25.87;;;1.10;99.90;;;;;;6096903;23;20592;-76
2023/01/21 10:06:34;;;;;;;57.90;27.67;;;1.00;99.90;;;;;;6097331;23;20135;-76
2023/01/21 10:09:06;;;;;;;59.07;26.87;;;1.00;99.90;;;;;;6071518;23;20225;-76
2023/01/21 10:11:46;;;;;;;60.90;28.17;;;1.10;99.90;;;;;;6097120;23;20214;-76
2023/01/21 10:14:40;;;;;;;62.07;27.03;;;1.30;99.90;;;;;;6096914;23;20509;-77
2023/01/21 10:17:24;;;;;;;55.67;25.70;;;1.30;99.90;;;;;;6071027;23;20150;-76
2023/01/21 10:20:15;;;;;;;60.77;27.70;;;1.30;99.90;;;;;;6096947;23;20135;-77
2023/01/21 10:22:49;;;;;;;56.80;26.20;;;1.60;99.90;;;;;;6071534;23;20586;-76
2023/01/21 10:25:23;;;;;;;61.07;26.77;;;1.70;99.90;;;;;;6071046;23;20154;-78
2023/01/21 10:27:49;;;;;;;58.43;27.60;;;1.60;99.90;;;;;;6072084;23;20150;-77
2023/01/21 10:30:26;;;;;;;53.37;25.83;;;1.60;99.90;;;;;;6097038;23;20166;-77
2023/01/21 10:32:53;;;;;;;50.90;26.17;;;1.70;99.90;;;;;;6097190;23;20135;-78
2023/01/21 10:35:57;;;;;;;50.80;24.47;;;1.80;99.90;;;;;;6096990;23;20527;-78
2023/01/21 10:38:26;;;;;;;51.57;24.60;;;1.80;99.90;;;;;;6063420;23;20276;-78
2023/01/21 10:41:20;;;;;;;47.97;24.50;;;1.90;99.90;;;;;;6097061;23;20135;-76
2023/01/21 10:44:12;;;;;;;49.90;22.47;;;2.20;99.90;;;;;;6097024;23;20190;-76
2023/01/21 10:47:02;;;;;;;43.87;21.97;;;2.30;99.90;;;;;;6081194;23;20233;-76
2023/01/21 10:49:58;;;;;;;43.77;21.63;;;2.40;99.90;;;;;;6096547;23;20170;-76
2023/01/21 10:52:45;;;;;;;47.43;22.40;;;2.40;99.90;;;;;;6097105;23;20143;-76
2023/01/21 10:55:38;;;;;;;44.20;22.77;;;2.60;99.90;;;;;;6097246;23;20138;-76
2023/01/21 10:58:25;;;;;;;45.67;23.83;;;2.70;99.90;;;;;;6097216;23;20448;-76
2023/01/21 11:00:54;;;;;;;46.57;22.90;;;2.80;99.90;;;;;;6096366;23;20214;-76
2023/01/21 11:03:42;;;;;;;46.80;22.27;;;2.90;99.90;;;;;;6094914;23;20231;-77
2023/01/21 11:06:11;;;;;;;41.87;22.30;;;3.40;99.90;;;;;;6096409;23;20475;-77
2023/01/21 11:08:38;;;;;;;40.97;21.63;;;3.70;99.90;;;;;;6096546;23;20136;-76
2023/01/21 11:11:06;;;;;;;43.83;21.97;;;3.90;99.90;;;;;;6096558;23;20138;-78
2023/01/21 11:13:32;;;;;;;38.60;21.37;;;4.00;99.90;;;;;;6096569;23;20135;-77
2023/01/21 11:16:00;;;;;;;38.13;20.40;;;4.30;99.90;;;;;;6094927;23;20146;-76
2023/01/21 11:18:36;;;;;;;38.90;21.60;;;4.60;99.90;;;;;;6094993;23;20156;-76
2023/01/21 11:21:22;;;;;;;38.13;21.07;;;4.80;99.90;;;;;;6096426;23;20217;-77
2023/01/21 11:24:19;;;;;;;39.03;20.87;;;5.20;99.90;;;;;;6096483;23;20576;-77
2023/01/21 11:26:57;;;;;;;39.63;20.17;;;4.90;99.90;;;;;;6089035;23;20151;-76
2023/01/21 11:29:24;;;;;;;38.00;20.80;;;5.00;99.90;;;;;;6096071;23;20188;-77
2023/01/21 11:31:59;;;;;;;38.77;21.70;;;5.30;99.90;;;;;;6096342;23;20213;-76
2023/01/21 11:34:24;;;;;;;38.80;21.07;;;5.70;99.90;;;;;;6094765;23;20518;-76
2023/01/21 11:37:02;;;;;;;36.87;21.30;;;6.00;99.90;;;;;;6096200;23;20264;-76
2023/01/21 11:39:35;;;;;;;35.67;20.93;;;6.30;99.90;;;;;;6096492;23;20144;-78
2023/01/21 11:42:11;;;;;;;35.87;20.23;;;6.70;99.90;;;;;;6094952;23;20145;-78
2023/01/21 11:44:56;;;;;;;33.70;19.83;;;6.30;99.90;;;;;;6095783;23;20467;-77
2023/01/21 11:47:37;;;;;;;34.73;19.87;;;6.50;99.90;;;;;;6096658;23;20172;-77
2023/01/21 11:50:38;;;;;;;32.90;19.17;;;6.50;99.90;;;;;;6096453;23;20190;-77
2023/01/21 11:53:13;;;;;;;35.13;19.03;;;6.20;99.90;;;;;;6094701;23;20154;-76
2023/01/21 11:55:41;;;;;;;38.73;20.10;;;5.70;99.90;;;;;;6096654;23;20184;-76
2023/01/21 11:58:18;;;;;;;35.83;20.43;;;5.20;99.90;;;;;;6094848;23;20161;-76
2023/01/21 12:00:48;;;;;;;36.87;20.80;;;5.20;99.90;;;;;;6097049;23;20522;-76
2023/01/21 12:03:20;;;;;;;35.00;19.70;;;5.30;99.90;;;;;;6096648;23;20140;-76
2023/01/21 12:05:49;;;;;;;37.33;19.90;;;5.50;99.90;;;;;;6070910;23;20166;-77
2023/01/21 12:08:28;;;;;;;33.73;20.20;;;6.30;99.90;;;;;;6095418;23;20147;-77
2023/01/21 12:10:56;;;;;;;30.73;18.97;;;7.40;99.90;;;;;;6096003;23;20206;-76
2023/01/21 12:13:33;;;;;;;38.10;19.87;;;7.90;99.90;;;;;;6096379;23;20138;-76
2023/01/21 12:16:07;;;;;;;36.93;20.83;;;7.40;99.90;;;;;;6095120;23;20146;-77
2023/01/21 12:18:54;;;;;;;38.37;21.03;;;7.30;99.90;;;;;;6095174;23;20157;-77
2023/01/21 12:21:48;;;;;;;35.73;19.63;;;6.60;99.90;;;;;;6095204;23;20155;-77
2023/01/21 12:24:31;;;;;;;36.93;20.70;;;5.80;99.90;;;;;;6095555;23;20587;-77
2023/01/21 12:27:13;;;;;;;35.70;19.97;;;5.20;99.90;;;;;;6094147;23;20154;-77
2023/01/21 12:29:56;;;;;;;41.60;22.23;;;4.70;99.90;;;;;;6096731;23;20159;-76
2023/01/21 12:32:28;;;;;;;47.57;24.77;;;4.20;99.90;;;;;;6096854;23;20149;-78
2023/01/21 12:35:04;;;;;;;46.90;24.90;;;3.80;99.90;;;;;;6096758;23;20455;-76
2023/01/21 12:37:47;;;;;;;52.30;26.47;;;3.90;99.90;;;;;;6096288;23;20163;-76
2023/01/21 12:40:55;;;;;;;48.53;25.53;;;3.90;99.90;;;;;;6097110;23;20569;-77
2023/01/21 12:43:34;;;;;;;54.13;26.63;;;3.50;99.90;;;;;;6055002;23;20165;-77
2023/01/21 12:46:03;;;;;;;57.53;29.10;;;3.20;99.90;;;;;;6096219;23;20179;-76
2023/01/21 12:48:36;;;;;;;62.93;30.07;;;3.00;99.90;;;;;;6098069;23;20517;-77
2023/01/21 12:51:13;;;;;;;56.67;29.23;;;3.20;99.90;;;;;;6096135;23;20162;-76
2023/01/21 12:54:10;;;;;;;63.00;29.63;;;3.20;99.90;;;;;;6097633;23;20147;-76
2023/01/21 12:56:46;;;;;;;49.37;23.13;;;3.30;99.90;;;;;;6098190;23;20159;-77
2023/01/21 12:59:36;;;;;;;67.00;31.07;;;2.80;99.90;;;;;;6096186;23;20216;-77
2023/01/21 13:02:14;;;;;;;64.73;29.70;;;2.70;99.90;;;;;;6098132;23;20185;-77
2023/01/21 13:04:54;;;;;;;60.60;28.93;;;2.40;99.90;;;;;;6097915;23;20170;-77